Time;durP1;ratioP1;P1;durP2;ratioP2;P2;SDS_P1;SDS_P2;PMS_P1;PMS_P2;Temp;Humidity;BMP_temperature;BMP_pressure;BME280_temperature;BME280_humidity;BME280_pressure;Samples;Min_cycle;Max_cycle;Signal;HPM_P1;HPM_P2
2022/02/02 00:00:51;;;;;;;34.60;6.40;;;;;;;6.80;99.64;101383.50;5119355;27;20130;-48
2022/02/02 00:03:22;;;;;;;27.42;4.47;;;;;;;6.76;100.00;101390.63;5119417;27;20078;-49
2022/02/02 00:06:02;;;;;;;24.17;4.10;;;;;;;6.77;100.00;101376.63;5119398;28;20040;-48
2022/02/02 00:08:35;;;;;;;28.75;4.60;;;;;;;6.72;100.00;101382.06;5118038;28;20048;-47
2022/02/02 00:14:09;;;;;;;25.63;4.47;;;;;;;6.68;100.00;101383.09;5119587;27;20070;-47
2022/02/02 00:16:48;;;;;;;29.92;5.53;;;;;;;6.69;100.00;101384.78;5119207;28;20054;-52
2022/02/02 00:19:25;;;;;;;27.58;4.30;;;;;;;6.66;100.00;101389.31;5119335;27;20048;-45
2022/02/02 00:21:59;;;;;;;32.47;5.20;;;;;;;6.66;100.00;101376.22;5119190;28;20052;-45
2022/02/02 00:24:35;;;;;;;30.02;4.80;;;;;;;6.65;100.00;101377.13;5119228;28;20052;-47
2022/02/02 00:27:07;;;;;;;28.10;4.93;;;;;;;6.64;100.00;101380.66;5119261;27;20051;-46
2022/02/02 00:29:40;;;;;;;36.85;4.53;;;;;;;6.63;100.00;101373.75;5119177;27;20050;-55
2022/02/02 00:32:15;;;;;;;36.13;4.80;;;;;;;6.61;100.00;101376.41;5119200;27;20146;-55
2022/02/02 00:34:44;;;;;;;26.75;4.90;;;;;;;6.61;100.00;101399.94;5118835;27;20105;-54
2022/02/02 00:37:14;;;;;;;35.75;5.53;;;;;;;6.59;100.00;101392.16;5118952;28;20040;-55
2022/02/02 00:39:43;;;;;;;26.27;4.97;;;;;;;6.57;100.00;101404.44;5117697;28;20105;-56
2022/02/02 00:42:11;;;;;;;23.67;4.82;;;;;;;6.54;100.00;101401.94;5119031;27;20383;-56
2022/02/02 00:44:43;;;;;;;32.28;5.55;;;;;;;6.52;100.00;101403.75;5119011;27;20155;-55
2022/02/02 00:47:16;;;;;;;35.45;4.70;;;;;;;6.55;100.00;101403.63;5119029;27;20039;-56
2022/02/02 00:49:45;;;;;;;27.38;4.43;;;;;;;6.57;100.00;101416.63;5118922;27;20498;-55
2022/02/02 00:52:15;;;;;;;40.00;8.90;;;;;;;6.53;100.00;101410.69;5119093;27;20036;-54
2022/02/02 00:54:43;;;;;;;35.33;5.72;;;;;;;6.58;100.00;101413.97;5118902;28;20050;-53
2022/02/02 00:57:11;;;;;;;29.67;4.15;;;;;;;6.57;100.00;101416.63;5118885;28;20047;-54
2022/02/02 00:59:39;;;;;;;36.20;4.85;;;;;;;6.65;100.00;101418.97;5116383;27;20071;-56
2022/02/02 01:02:07;;;;;;;32.45;5.05;;;;;;;6.64;100.00;101425.09;5116071;28;20486;-55
2022/02/02 01:04:36;;;;;;;34.95;5.72;;;;;;;6.69;100.00;101428.38;5115739;28;20067;-56
2022/02/02 01:07:11;;;;;;;38.20;6.00;;;;;;;6.71;100.00;101430.03;5115770;28;20093;-55
2022/02/02 01:09:46;;;;;;;30.95;5.55;;;;;;;6.67;100.00;101418.00;5115464;28;20051;-56
2022/02/02 01:12:41;;;;;;;36.03;5.88;;;;;;;6.69;100.00;101415.31;5115541;28;20066;-54
2022/02/02 01:20:52;;;;;;;36.25;5.55;;;;;;;6.75;100.00;101409.84;5114992;28;20047;-56
2022/02/02 01:29:03;;;;;;;29.88;5.68;;;;;;;6.63;100.00;101392.88;5114530;28;20551;-55
2022/02/02 01:31:34;;;;;;;31.55;5.70;;;;;;;6.63;100.00;101398.13;5115018;28;20559;-53
2022/02/02 01:34:02;;;;;;;25.33;5.57;;;;;;;6.63;100.00;101390.28;5114765;28;20051;-54
2022/02/02 01:36:33;;;;;;;31.80;5.40;;;;;;;6.63;100.00;101389.44;5115083;28;20502;-55
2022/02/02 01:39:04;;;;;;;36.35;5.93;;;;;;;6.67;100.00;101406.69;5114711;28;20066;-56
2022/02/02 01:41:35;;;;;;;36.20;6.07;;;;;;;6.60;100.00;101422.59;5114886;28;20047;-54
2022/02/02 01:44:11;;;;;;;37.22;5.35;;;;;;;6.58;100.00;101426.19;5114721;28;20062;-55
2022/02/02 01:46:40;;;;;;;35.30;5.15;;;;;;;6.53;100.00;101426.38;5114442;28;20383;-56
2022/02/02 01:52:13;;;;;;;34.15;5.13;;;;;;;6.51;100.00;101437.81;5114699;27;20047;-55
2022/02/02 01:54:54;;;;;;;29.60;5.38;;;;;;;6.55;100.00;101429.78;5114726;28;20520;-54
2022/02/02 01:57:47;;;;;;;32.42;4.57;;;;;;;6.55;100.00;101447.22;5114513;28;20052;-53
2022/02/02 02:00:15;;;;;;;;;;;;;;;6.54;100.00;101464.66;5115057;28;20086;-55
2022/02/02 02:02:44;;;;;;;25.85;4.32;;;;;;;6.60;100.00;101467.03;5114585;28;20290;-56
2022/02/02 02:05:13;;;;;;;37.58;6.05;;;;;;;6.64;100.00;101467.78;5114330;28;20032;-51
2022/02/02 02:07:41;;;;;;;33.88;5.93;;;;;;;6.64;100.00;101470.41;5114356;28;20044;-55
2022/02/02 02:10:09;;;;;;;33.20;5.47;;;;;;;6.65;100.00;101464.25;5114273;28;20047;-56
2022/02/02 02:12:47;;;;;;;37.22;5.93;;;;;;;6.60;100.00;101455.75;5113303;28;20367;-55
2022/02/02 02:15:17;;;;;;;43.75;5.45;;;;;;;6.60;100.00;101438.28;5114111;28;20392;-56
2022/02/02 02:17:45;;;;;;;30.23;4.57;;;;;;;6.55;100.00;101440.22;5114101;28;20097;-55
2022/02/02 02:20:14;;;;;;;37.42;5.70;;;;;;;6.54;100.00;101437.69;5114252;27;20040;-55
2022/02/02 02:22:44;;;;;;;37.53;5.30;;;;;;;6.51;100.00;101451.72;5114135;28;20535;-55
2022/02/02 02:25:21;;;;;;;28.25;6.50;;;;;;;6.51;100.00;101454.31;5114235;28;20134;-54
2022/02/02 02:27:49;;;;;;;30.95;4.70;;;;;;;6.53;100.00;101436.84;5114066;28;20439;-53
2022/02/02 02:30:26;;;;;;;41.15;5.38;;;;;;;6.51;100.00;101450.88;5113901;28;20097;-54
2022/02/02 02:36:24;;;;;;;33.05;4.88;;;;;;;6.52;100.00;101460.41;5113958;28;20051;-55
2022/02/02 02:39:19;;;;;;;42.55;6.00;;;;;;;6.50;100.00;101470.06;5113777;28;20502;-57
2022/02/02 02:55:55;;;;;;;40.15;5.97;;;;;;;6.46;100.00;101458.88;5112124;28;20043;-56
2022/02/02 02:58:43;;;;;;;31.48;4.78;;;;;;;6.52;100.00;101453.41;5113266;28;20398;-55
2022/02/02 03:01:31;;;;;;;33.53;5.30;;;;;;;6.52;100.00;101465.66;5105047;28;20040;-56
2022/02/02 03:32:05;;;;;;;31.73;4.82;;;;;;;6.40;100.00;101473.03;5092502;28;20044;-55
2022/02/02 03:34:47;;;;;;;;;;;;;;;6.39;100.00;101473.94;5093765;28;20048;-54
2022/02/02 03:56:54;;;;;;;30.17;4.43;;;;;;;6.36;100.00;101481.88;5076760;28;20056;-45
2022/02/02 03:59:35;;;;;;;30.17;6.60;;;;;;;6.37;100.00;101487.97;5092097;28;20117;-47
2022/02/02 04:05:05;;;;;;;33.80;5.10;;;;;;;6.39;100.00;101481.78;5061714;28;20048;-47
2022/02/02 04:07:45;;;;;;;33.65;4.95;;;;;;;6.45;100.00;101496.38;5091493;28;20063;-45
2022/02/02 04:10:13;;;;;;;25.50;4.05;;;;;;;6.44;100.00;101484.22;5092296;28;20035;-47
2022/02/02 04:12:50;;;;;;;23.63;4.28;;;;;;;6.43;100.00;101492.97;5092184;28;20476;-46
2022/02/02 04:37:58;;;;;;;28.13;4.47;;;;;;;6.55;99.08;101505.56;5038792;28;20049;-44
2022/02/02 04:51:43;;;;;;;25.08;5.47;;;;;;;6.57;99.05;101529.91;5095501;28;20044;-49
2022/02/02 04:54:21;;;;;;;24.50;4.88;;;;;;;6.57;99.83;101526.41;5095629;28;20077;-49
2022/02/02 04:59:45;;;;;;;32.80;4.68;;;;;;;6.63;100.00;101536.66;5069227;28;20523;-48
2022/02/02 05:03:20;;;;;;;29.23;4.70;;;;;;;6.57;100.00;101545.56;5091523;28;20040;-48
2022/02/02 05:08:18;;;;;;;32.45;4.55;;;;;;;6.59;99.90;101535.91;5093966;28;20047;-50
2022/02/02 05:11:00;;;;;;;29.77;5.00;;;;;;;6.57;100.00;101552.53;5095122;28;20048;-47
2022/02/02 05:16:35;;;;;;;29.38;4.97;;;;;;;6.58;100.00;101549.03;5094099;28;20036;-46
2022/02/02 05:19:42;;;;;;;31.00;4.55;;;;;;;6.55;100.00;101550.00;5090214;28;20047;-49
2022/02/02 05:22:51;;;;;;;34.17;5.07;;;;;;;6.57;100.00;101565.63;5093900;28;20064;-44
2022/02/02 05:50:17;;;;;;;24.23;3.75;;;;;;;6.62;99.92;101573.31;5097516;28;20083;-48
2022/02/02 05:52:46;;;;;;;27.50;4.65;;;;;;;6.55;99.15;101581.34;5094350;28;20503;-44
2022/02/02 05:55:14;;;;;;;23.45;4.00;;;;;;;6.55;97.96;101580.50;5092828;28;20868;-46
2022/02/02 05:57:46;;;;;;;15.90;2.75;;;;;;;6.54;98.77;101584.88;5093972;28;20121;-46
2022/02/02 06:00:16;;;;;;;21.08;3.08;;;;;;;6.48;98.20;101585.13;5094045;28;20089;-47
2022/02/02 06:02:48;;;;;;;19.77;3.20;;;;;;;6.44;99.12;101583.50;5093989;28;20048;-45
2022/02/02 06:05:16;;;;;;;19.60;3.05;;;;;;;6.41;98.76;101594.94;5094483;28;20040;-44
2022/02/02 06:07:44;;;;;;;22.27;3.08;;;;;;;6.41;99.54;101599.31;5092510;28;20557;-46
2022/02/02 06:10:15;;;;;;;25.33;4.00;;;;;;;6.44;99.87;101593.97;5093842;28;20544;-49
2022/02/02 06:12:45;;;;;;;30.60;4.05;;;;;;;6.39;100.00;101599.38;5094031;28;20032;-47
2022/02/02 06:15:17;;;;;;;26.90;3.95;;;;;;;6.43;100.00;101595.75;5094118;28;20048;-48
2022/02/02 06:17:49;;;;;;;23.48;3.40;;;;;;;6.35;100.00;101602.97;5093910;28;20044;-46
2022/02/02 06:20:18;;;;;;;24.40;4.13;;;;;;;6.32;100.00;101597.84;5093777;28;20491;-48
2022/02/02 06:22:53;;;;;;;24.48;5.07;;;;;;;6.31;100.00;101603.16;5093680;28;20044;-48
2022/02/02 06:25:28;;;;;;;32.35;4.60;;;;;;;6.31;100.00;101608.38;5093831;28;20040;-57
2022/02/02 06:28:02;;;;;;;26.38;3.78;;;;;;;6.37;100.00;101605.56;5094453;28;20047;-56
2022/02/02 06:30:32;;;;;;;27.65;5.35;;;;;;;6.32;100.00;101616.16;5093656;28;20040;-57
2022/02/02 06:33:06;;;;;;;34.47;5.38;;;;;;;6.30;100.00;101617.09;5093640;28;20047;-56
2022/02/02 06:35:35;;;;;;;32.55;4.28;;;;;;;6.28;100.00;101616.31;5093482;28;20059;-46
2022/02/02 06:38:04;;;;;;;28.80;4.07;;;;;;;6.31;100.00;101626.66;5093798;28;20062;-49
2022/02/02 06:40:34;;;;;;;27.42;4.43;;;;;;;6.28;100.00;101627.63;5093633;28;20048;-47
2022/02/02 06:43:06;;;;;;;21.02;3.97;;;;;;;6.30;100.00;101627.56;5093281;28;20048;-56
2022/02/02 06:45:35;;;;;;;27.00;3.88;;;;;;;6.30;100.00;101630.16;5093125;28;20048;-56
2022/02/02 06:48:04;;;;;;;28.73;4.25;;;;;;;6.25;100.00;101648.63;5093210;28;20391;-44
2022/02/02 06:50:37;;;;;;;27.20;4.95;;;;;;;6.23;100.00;101640.84;5093083;28;20499;-46
2022/02/02 06:53:13;;;;;;;;;;;;;;;6.24;100.00;101647.78;5094066;28;20047;-45
2022/02/02 06:55:59;;;;;;;17.55;3.33;;;;;;;6.24;99.73;101650.41;5092561;28;19919;-48
2022/02/02 06:58:40;;;;;;;26.00;3.70;;;;;;;6.21;99.68;101650.47;5092865;28;20131;-55
2022/02/02 07:01:29;;;;;;;23.45;3.00;;;;;;;6.18;99.82;101653.19;5093710;28;20077;-56
2022/02/02 07:04:12;;;;;;;23.92;3.35;;;;;;;6.16;99.36;101647.19;5093240;28;20072;-49
2022/02/02 07:06:50;;;;;;;20.88;3.65;;;;;;;6.12;99.72;101661.22;5093026;28;20044;-57
2022/02/02 07:09:30;;;;;;;28.17;3.78;;;;;;;6.11;99.66;101674.34;5093702;28;20101;-46
2022/02/02 07:12:10;;;;;;;26.98;3.65;;;;;;;6.09;98.98;101677.00;5072722;28;20131;-45
2022/02/02 07:15:01;;;;;;;23.20;3.78;;;;;;;6.10;99.44;101686.56;5086451;28;20056;-56
2022/02/02 07:17:46;;;;;;;20.40;3.55;;;;;;;6.07;99.52;101684.91;5093277;28;20051;-56
2022/02/02 07:20:21;;;;;;;21.45;3.40;;;;;;;5.99;99.79;101691.28;5092345;28;20055;-44
2022/02/02 07:28:20;;;;;;;27.85;3.97;;;;;;;6.01;99.43;101686.84;5091527;28;20384;-45
2022/02/02 07:30:58;;;;;;;24.02;3.50;;;;;;;5.97;99.33;101698.28;5091126;28;20153;-46
2022/02/02 07:33:36;;;;;;;21.40;4.00;;;;;;;5.98;99.04;101690.41;5092592;28;20387;-57
2022/02/02 07:36:10;;;;;;;21.60;3.83;;;;;;;5.97;100.00;101704.38;5092553;28;20068;-57
2022/02/02 07:38:46;;;;;;;28.17;4.22;;;;;;;5.95;100.00;101710.53;5092620;28;20047;-46
2022/02/02 07:41:24;;;;;;;19.45;3.92;;;;;;;5.88;100.00;101710.72;5092796;28;20097;-57
2022/02/02 07:43:55;;;;;;;25.70;3.88;;;;;;;5.88;100.00;101709.88;5092351;28;20135;-47
2022/02/02 07:46:27;;;;;;;27.65;3.95;;;;;;;5.93;99.49;101711.44;5092453;28;20048;-45
2022/02/02 07:48:55;;;;;;;24.40;4.23;;;;;;;5.96;100.00;101718.31;5092154;28;20060;-46
2022/02/02 07:51:27;;;;;;;29.00;4.13;;;;;;;5.98;99.76;101732.19;5092168;28;20056;-44
2022/02/02 07:54:01;;;;;;;23.15;3.78;;;;;;;5.96;100.00;101734.00;5092265;28;20537;-45
2022/02/02 07:56:41;;;;;;;24.00;4.30;;;;;;;5.96;100.00;101728.75;5092259;28;20368;-56
2022/02/02 07:59:20;;;;;;;22.30;4.28;;;;;;;5.99;100.00;101730.47;5092323;28;20066;-55
2022/02/02 08:01:52;;;;;;;27.38;4.05;;;;;;;6.01;100.00;101746.91;5092227;28;20063;-56
2022/02/02 08:04:27;;;;;;;24.77;4.07;;;;;;;6.05;100.00;101753.75;5092075;28;20058;-57
2022/02/02 08:06:56;;;;;;;24.08;3.75;;;;;;;6.05;100.00;101757.25;5092088;28;20055;-55
2022/02/02 08:09:30;;;;;;;17.63;4.30;;;;;;;6.07;100.00;101757.19;5094626;28;20052;-57
2022/02/02 08:12:00;;;;;;;26.27;4.25;;;;;;;6.05;100.00;101756.38;5096231;28;20122;-56
2022/02/02 08:14:33;;;;;;;29.77;4.60;;;;;;;6.06;100.00;101758.06;5096415;28;20048;-56
2022/02/02 08:17:02;;;;;;;27.08;4.38;;;;;;;6.12;100.00;101759.63;5096207;28;20044;-45
2022/02/02 08:19:31;;;;;;;21.83;4.22;;;;;;;6.13;100.00;101770.03;5096002;28;20055;-46
2022/02/02 08:21:59;;;;;;;37.83;5.75;;;;;;;6.15;100.00;101780.44;5096068;28;20043;-44
2022/02/02 08:24:27;;;;;;;29.50;5.05;;;;;;;6.17;100.00;101783.84;5095806;28;20048;-50
2022/02/02 08:26:56;;;;;;;22.17;4.20;;;;;;;6.25;100.00;101781.84;5095734;28;20056;-47
2022/02/02 08:29:26;;;;;;;19.83;3.88;;;;;;;6.24;100.00;101790.59;5095696;28;20052;-50
2022/02/02 08:31:54;;;;;;;26.80;4.05;;;;;;;6.23;100.00;101784.53;5095258;28;20556;-48
2022/02/02 08:34:25;;;;;;;28.63;4.28;;;;;;;6.28;100.00;101794.81;5095525;28;20559;-48
2022/02/02 08:36:55;;;;;;;21.02;3.50;;;;;;;6.31;100.00;101812.16;5095728;28;20052;-51
2022/02/02 08:39:38;;;;;;;26.02;4.50;;;;;;;6.31;100.00;101813.00;5095984;28;20047;-48
2022/02/02 08:42:10;;;;;;;24.80;4.75;;;;;;;6.34;100.00;101801.59;5095698;28;20052;-51
2022/02/02 08:44:47;;;;;;;30.00;4.32;;;;;;;6.42;100.00;101812.66;5095720;28;20059;-49
2022/02/02 08:47:19;;;;;;;31.98;4.75;;;;;;;6.41;100.00;101798.75;5095643;28;20127;-47
2022/02/02 08:49:54;;;;;;;25.77;4.47;;;;;;;6.43;100.00;101809.16;5095299;28;20056;-48
2022/02/02 08:52:32;;;;;;;21.65;4.03;;;;;;;6.49;100.00;101803.72;5095263;28;20059;-46
2022/02/02 08:55:34;;;;;;;31.60;4.28;;;;;;;6.55;100.00;101813.97;5095484;28;20054;-49
2022/02/02 08:58:20;;;;;;;24.55;3.90;;;;;;;6.76;100.00;101819.38;5095504;28;20479;-46
2022/02/02 09:00:49;;;;;;;28.00;4.80;;;;;;;6.82;100.00;101818.34;5095426;28;20055;-45
2022/02/02 09:06:04;;;;;;;26.90;4.75;;;;;;;6.87;100.00;101817.28;5095222;28;20047;-46
2022/02/02 09:08:33;;;;;;;30.55;4.50;;;;;;;6.93;100.00;101808.38;5095167;28;20036;-49
2022/02/02 09:25:06;;;;;;;27.60;4.47;;;;;;;7.07;100.00;101850.59;5085560;28;20062;-44
2022/02/02 09:35:52;;;;;;;24.80;3.42;;;;;;;7.16;100.00;101857.28;5094288;28;20048;-49
2022/02/02 09:38:23;;;;;;;19.55;3.72;;;;;;;7.20;100.00;101853.66;5093960;28;20044;-45
2022/02/02 09:43:47;;;;;;;24.23;4.13;;;;;;;7.30;100.00;101872.50;5088824;28;20495;-46
2022/02/02 09:46:20;;;;;;;23.40;5.18;;;;;;;7.31;100.00;101875.94;5094583;28;20055;-47
2022/02/02 09:48:52;;;;;;;21.92;4.80;;;;;;;7.31;100.00;101878.56;5094377;28;20048;-47
2022/02/02 09:51:26;;;;;;;24.48;5.82;;;;;;;7.36;100.00;101881.88;5094528;28;20048;-50
2022/02/02 09:54:01;;;;;;;29.30;3.80;;;;;;;7.43;100.00;101883.38;5092979;28;20514;-49
2022/02/02 09:57:10;;;;;;;25.40;5.43;;;;;;;7.49;100.00;101880.56;5094475;28;20068;-46
2022/02/02 10:03:03;;;;;;;30.63;4.17;;;;;;;7.90;100.00;101888.66;5093582;28;20549;-45
2022/02/02 10:05:35;;;;;;;28.92;4.68;;;;;;;7.84;100.00;101886.28;5093791;28;20059;-48
2022/02/02 10:16:26;;;;;;;27.63;5.68;;;;;;;8.09;100.00;101896.69;5093678;28;20051;-45
2022/02/02 10:18:54;;;;;;;29.73;4.97;;;;;;;8.06;100.00;101904.66;5093939;28;20044;-46
2022/02/02 10:21:32;;;;;;;31.27;5.63;;;;;;;8.02;100.00;101903.06;5093772;28;20052;-47
2022/02/02 10:24:00;;;;;;;23.70;4.43;;;;;;;8.02;98.35;101910.09;5093906;28;20047;-48
2022/02/02 10:26:29;;;;;;;27.35;3.97;;;;;;;7.99;98.41;101907.56;5093718;28;20483;-44
2022/02/02 10:29:08;;;;;;;22.60;3.85;;;;;;;7.92;97.88;101909.53;5093937;28;20509;-45
2022/02/02 10:31:40;;;;;;;29.95;4.00;;;;;;;7.95;98.73;101909.47;5091636;28;20383;-45
2022/02/02 10:34:13;;;;;;;30.70;4.88;;;;;;;8.04;97.24;101916.94;5093302;28;20059;-49
2022/02/02 10:36:41;;;;;;;27.27;4.82;;;;;;;8.13;96.31;101918.38;5093629;28;20055;-50
2022/02/02 10:39:14;;;;;;;25.20;4.13;;;;;;;8.37;96.36;101931.47;5093152;28;20383;-46
2022/02/02 10:41:48;;;;;;;22.98;4.57;;;;;;;8.40;95.16;101931.38;5093519;28;20050;-46
2022/02/02 10:44:30;;;;;;;35.05;6.28;;;;;;;8.65;94.50;101936.50;5093241;28;20120;-49
2022/02/02 10:47:10;;;;;;;33.08;4.72;;;;;;;8.66;92.98;101934.72;5093279;28;20494;-46
2022/02/02 10:49:51;;;;;;;24.73;4.93;;;;;;;8.60;94.09;101941.09;5093148;28;20127;-44
2022/02/02 10:52:36;;;;;;;23.27;3.85;;;;;;;8.55;93.68;101943.91;5093371;28;20048;-48
2022/02/02 10:55:46;;;;;;;20.02;3.95;;;;;;;8.60;94.83;101957.69;5093133;28;20158;-45
2022/02/02 10:58:29;;;;;;;31.65;4.47;;;;;;;8.58;94.67;101953.41;5093238;28;20055;-44
2022/02/02 11:01:19;;;;;;;23.85;4.22;;;;;;;8.54;93.27;101947.44;5093089;28;20051;-45
2022/02/02 11:06:41;;;;;;;22.90;3.75;;;;;;;8.83;91.25;101958.53;5092987;28;20054;-47
2022/02/02 11:09:11;;;;;;;26.08;5.07;;;;;;;8.86;91.48;101958.44;5092525;28;20500;-48
2022/02/02 11:11:43;;;;;;;22.40;3.60;;;;;;;8.99;90.70;101953.53;5092781;28;20048;-45
2022/02/02 11:14:22;;;;;;;23.25;3.83;;;;;;;9.14;90.22;101957.28;5092767;28;20055;-49
2022/02/02 11:16:56;;;;;;;20.88;4.75;;;;;;;9.06;88.27;101949.72;5092786;28;20403;-49
2022/02/02 11:19:31;;;;;;;25.30;3.88;;;;;;;9.06;87.77;101948.88;5092867;28;20117;-46
2022/02/02 11:22:21;;;;;;;25.58;4.20;;;;;;;9.07;89.35;101951.44;5092760;28;20048;-48
2022/02/02 11:24:50;;;;;;;25.73;4.82;;;;;;;9.11;88.03;101953.03;5092625;28;20048;-48
2022/02/02 11:27:38;;;;;;;21.88;4.30;;;;;;;9.00;87.00;101949.13;5092669;28;20079;-48
2022/02/02 11:30:14;;;;;;;21.33;4.13;;;;;;;9.29;86.82;101961.88;5092714;28;20503;-48
2022/02/02 11:32:45;;;;;;;21.52;4.38;;;;;;;9.58;86.20;101962.41;5092788;28;20147;-50
2022/02/02 11:35:36;;;;;;;17.63;3.65;;;;;;;9.69;85.70;101964.59;5092376;28;20032;-46
2022/02/02 11:38:38;;;;;;;22.70;4.00;;;;;;;9.81;84.08;101965.81;5092047;28;20036;-47
2022/02/02 11:41:21;;;;;;;21.80;4.13;;;;;;;9.78;84.70;101968.59;5092418;28;20044;-49
2022/02/02 11:43:54;;;;;;;18.45;3.75;;;;;;;9.78;84.95;101963.34;5091917;28;20406;-51
2022/02/02 11:46:43;;;;;;;22.45;4.20;;;;;;;9.83;85.46;101964.00;5092461;28;20048;-49
2022/02/02 11:49:16;;;;;;;21.45;4.68;;;;;;;9.96;85.46;101949.38;5090774;28;20060;-46
2022/02/02 11:51:46;;;;;;;26.35;4.13;;;;;;;9.81;82.23;101950.91;5092383;28;20047;-47
2022/02/02 11:54:15;;;;;;;27.75;3.97;;;;;;;9.68;81.27;101949.78;5092219;28;20501;-46
2022/02/02 12:00:17;;;;;;;22.20;4.75;;;;;;;9.71;81.58;101961.91;5092349;28;20101;-49
2022/02/02 12:03:10;;;;;;;21.10;3.53;;;;;;;9.70;80.50;101971.56;5092348;28;20040;-47
2022/02/02 12:08:46;;;;;;;21.25;2.85;;;;;;;9.68;81.22;101975.16;5092356;28;20507;-48
2022/02/02 12:11:43;;;;;;;22.50;4.00;;;;;;;9.76;80.32;101970.44;5092357;28;20056;-45
2022/02/02 12:48:01;;;;;;;17.27;2.60;;;;;;;9.03;77.09;101962.97;5091485;28;20052;-49
2022/02/02 12:59:22;;;;;;;16.00;3.13;;;;;;;9.64;75.13;101954.28;5091081;28;20055;-50
2022/02/02 13:02:04;;;;;;;15.23;2.35;;;;;;;9.76;72.99;101954.66;5095303;28;20052;-46
2022/02/02 13:04:32;;;;;;;15.65;2.47;;;;;;;10.02;72.66;101947.41;5095361;28;20036;-49
2022/02/02 13:07:09;;;;;;;9.32;2.03;;;;;;;10.23;71.23;101942.94;5095222;28;20127;-51
2022/02/02 13:09:39;;;;;;;19.75;2.95;;;;;;;10.35;72.13;101933.66;5095328;28;20050;-49
2022/02/02 13:12:28;;;;;;;15.73;2.40;;;;;;;10.40;70.02;101935.16;5095232;28;20123;-49
2022/02/02 13:15:15;;;;;;;13.98;2.58;;;;;;;10.40;68.94;101936.91;5094993;28;20048;-49
2022/02/02 13:18:05;;;;;;;13.48;2.28;;;;;;;10.68;69.07;101940.88;5094808;28;20442;-46
2022/02/02 13:20:44;;;;;;;13.75;2.08;;;;;;;10.44;66.99;101941.97;5095279;28;20055;-49
2022/02/02 13:23:19;;;;;;;17.08;2.13;;;;;;;10.54;67.14;101941.53;5094925;28;20044;-47
2022/02/02 13:25:57;;;;;;;11.80;2.20;;;;;;;10.68;66.58;101938.25;5095803;28;20505;-47
2022/02/02 13:28:47;;;;;;;13.48;2.38;;;;;;;10.85;65.92;101938.25;5074880;28;20127;-45
2022/02/02 13:31:26;;;;;;;8.60;2.10;;;;;;;10.66;65.55;101935.66;5079355;28;20130;-48
2022/02/02 13:34:20;;;;;;;12.52;2.33;;;;;;;10.73;65.56;101929.22;5094548;28;20050;-50
2022/02/02 13:37:06;;;;;;;9.85;1.85;;;;;;;10.78;64.92;101934.22;5095224;28;20052;-46
2022/02/02 13:42:48;;;;;;;12.18;1.98;;;;;;;10.70;64.04;101928.50;5115046;28;20047;-49
2022/02/02 13:53:59;;;;;;;10.60;2.00;;;;;;;10.76;64.33;101938.75;5047212;28;20075;-48
2022/02/02 13:57:00;;;;;;;12.20;2.03;;;;;;;10.72;62.95;101942.44;5094726;28;20040;-50
2022/02/02 14:03:47;;;;;;;12.70;1.90;;;;;;;10.45;62.67;101948.94;5091440;28;20048;-48
2022/02/02 14:09:00;;;;;;;12.50;1.85;;;;;;;10.14;64.09;101959.97;5090600;28;20051;-46
2022/02/02 14:33:52;;;;;;;14.30;2.33;;;;;;;9.80;67.64;101967.63;5092659;28;20044;-48
2022/02/02 14:36:23;;;;;;;12.43;2.10;;;;;;;9.76;68.28;101978.31;5073289;28;20110;-50
2022/02/02 14:38:57;;;;;;;15.20;1.85;;;;;;;9.66;68.17;101977.84;5073080;28;20051;-47
2022/02/02 14:41:34;;;;;;;12.80;2.17;;;;;;;9.62;68.87;101976.28;5073176;28;20120;-56
2022/02/02 14:44:08;;;;;;;15.50;2.15;;;;;;;9.64;68.71;101974.47;5073513;28;20056;-57
2022/02/02 14:46:40;;;;;;;12.75;2.28;;;;;;;9.48;68.23;101974.25;5073015;28;20074;-47
2022/02/02 14:49:15;;;;;;;14.93;2.55;;;;;;;9.40;68.63;101978.97;5072985;28;20063;-55
2022/02/02 14:51:53;;;;;;;12.63;2.58;;;;;;;9.36;69.28;101974.78;5073113;28;20113;-48
2022/02/02 15:28:22;;;;;;;15.23;3.05;;;;;;;9.08;74.97;101992.53;5088044;28;20048;-46
2022/02/02 15:30:57;;;;;;;14.35;2.50;;;;;;;9.05;75.00;101991.78;5072460;28;20043;-47
2022/02/02 15:33:28;;;;;;;12.13;2.05;;;;;;;8.98;74.52;101999.03;5072287;28;20588;-48
2022/02/02 15:36:10;;;;;;;11.88;2.40;;;;;;;8.95;75.03;101999.16;5068473;28;20047;-45
2022/02/02 15:38:40;;;;;;;14.63;2.72;;;;;;;8.93;74.90;102009.72;5070996;28;20068;-47
2022/02/02 15:41:17;;;;;;;18.27;2.85;;;;;;;8.97;75.76;102010.44;5070824;28;20044;-50
2022/02/02 15:43:55;;;;;;;15.55;2.80;;;;;;;8.89;75.26;102007.28;5072033;28;20541;-45
2022/02/02 15:54:57;;;;;;;14.43;2.85;;;;;;;8.63;78.62;102023.13;5072251;28;20045;-45
2022/02/02 16:03:04;;;;;;;16.65;3.42;;;;;;;8.46;81.11;102022.91;5064183;28;20061;-56
2022/02/02 16:05:34;;;;;;;17.30;3.15;;;;;;;8.25;82.21;102024.53;5072026;28;20393;-55
2022/02/02 16:08:06;;;;;;;17.05;3.30;;;;;;;8.21;83.45;102022.94;5072205;28;20040;-56
2022/02/02 16:10:45;;;;;;;16.15;3.00;;;;;;;8.18;83.96;102023.91;5072259;28;20124;-47
2022/02/02 16:13:29;;;;;;;19.30;3.15;;;;;;;8.14;84.78;102022.31;5071894;28;20040;-46
2022/02/02 16:16:02;;;;;;;18.33;3.13;;;;;;;8.06;86.05;102021.72;5071983;28;20055;-45
2022/02/02 16:18:38;;;;;;;17.27;3.17;;;;;;;8.02;87.28;102020.13;5071941;28;20390;-46
2022/02/02 16:35:26;;;;;;;15.73;4.18;;;;;;;7.77;93.54;102015.72;5075758;28;20109;-45
2022/02/02 16:37:57;;;;;;;18.40;3.80;;;;;;;7.75;94.15;102025.41;5074900;28;20044;-47
2022/02/02 16:40:31;;;;;;;17.33;3.30;;;;;;;7.70;94.97;102014.22;5071057;28;20051;-48
2022/02/02 16:43:13;;;;;;;14.80;2.90;;;;;;;7.63;95.51;102010.97;5072951;28;20052;-49
2022/02/02 16:45:43;;;;;;;13.23;3.33;;;;;;;7.56;96.07;102014.69;5075529;28;20044;-45
2022/02/02 16:48:12;;;;;;;21.60;4.10;;;;;;;7.52;96.64;102013.94;5074677;28;20111;-44
2022/02/02 16:50:45;;;;;;;18.25;3.80;;;;;;;7.52;96.91;102027.03;5074340;28;20117;-45
2022/02/02 16:53:24;;;;;;;17.80;3.63;;;;;;;7.47;96.95;102021.09;5075222;28;20048;-46
2022/02/02 16:55:58;;;;;;;23.58;4.00;;;;;;;7.42;97.06;102017.78;5075278;28;20048;-46
2022/02/02 17:31:43;;;;;;;15.40;4.10;;;;;;;6.88;100.00;102028.19;5074954;28;20037;-47
2022/02/02 17:34:19;;;;;;;21.88;4.63;;;;;;;6.89;100.00;102035.13;5074674;28;20059;-54
2022/02/02 17:36:54;;;;;;;14.18;4.10;;;;;;;6.91;100.00;102038.56;5074653;28;20056;-57
2022/02/02 17:39:32;;;;;;;22.70;4.70;;;;;;;6.90;100.00;102036.84;5074632;28;20054;-52
2022/02/02 18:12:51;;;;;;;23.75;7.45;;;;;;;6.86;100.00;102061.38;5073784;28;20052;-53
2022/02/02 18:20:59;;;;;;;23.83;7.83;;;;;;;6.86;100.00;102056.16;5073489;28;20052;-54
2022/02/02 18:23:34;;;;;;;22.02;6.55;;;;;;;6.85;100.00;102062.28;5073710;28;20088;-55
2022/02/02 18:26:12;;;;;;;20.58;6.13;;;;;;;6.83;100.00;102055.38;5073528;28;20486;-54
2022/02/02 18:28:48;;;;;;;20.67;6.88;;;;;;;6.81;100.00;102055.44;5073361;28;20048;-56
2022/02/02 18:31:31;;;;;;;22.45;7.32;;;;;;;6.83;100.00;102058.00;5073420;28;20052;-53
2022/02/02 18:34:10;;;;;;;19.02;7.25;;;;;;;6.83;100.00;102056.25;5073117;28;20080;-55
2022/02/02 18:36:48;;;;;;;22.25;5.90;;;;;;;6.85;100.00;102058.81;5072893;28;20045;-53
2022/02/02 18:45:30;;;;;;;20.77;7.13;;;;;;;6.81;100.00;102071.13;5011076;28;20058;-54
2022/02/02 18:48:14;;;;;;;21.98;7.70;;;;;;;6.81;100.00;102063.28;5011155;28;20046;-55
2022/02/02 18:53:49;;;;;;;22.55;7.15;;;;;;;6.88;100.00;102058.72;5062331;28;20056;-54
2022/02/02 18:56:34;;;;;;;19.33;6.78;;;;;;;6.89;100.00;102056.06;5072931;28;20045;-55
2022/02/02 18:59:13;;;;;;;20.92;7.63;;;;;;;6.97;100.00;102054.97;5073005;28;20079;-57
2022/02/02 19:01:48;;;;;;;22.88;7.40;;;;;;;6.96;100.00;102059.34;5072985;28;20052;-56
2022/02/02 19:04:41;;;;;;;18.70;7.47;;;;;;;6.95;100.00;102055.00;5068552;28;20036;-54
2022/02/02 19:38:26;;;;;;;18.58;9.32;;;;;;;7.13;100.00;102011.75;5072820;28;20045;-57
2022/02/02 19:52:47;;;;;;;14.38;9.05;;;;;;;7.22;100.00;102021.06;5053444;28;20055;-54
2022/02/02 19:55:32;;;;;;;17.98;8.07;;;;;;;7.25;100.00;102020.94;5072320;28;20052;-53